createdAt,value
2022-10-19T00:00:15.116Z,99.99
2022-10-19T00:00:50.181Z,99.99
2022-10-19T00:01:25.277Z,99.99
2022-10-19T00:02:00.519Z,99.99
2022-10-19T00:02:35.645Z,99.99
2022-10-19T00:03:10.813Z,99.99
2022-10-19T00:03:46.380Z,99.99
2022-10-19T00:04:21.499Z,99.99
2022-10-19T00:04:56.674Z,99.99
2022-10-19T00:05:31.754Z,99.99
2022-10-19T00:06:07.229Z,99.99
2022-10-19T00:06:42.889Z,99.99
2022-10-19T00:07:18.050Z,99.99
2022-10-19T00:07:53.241Z,99.99
2022-10-19T00:08:28.939Z,99.99
2022-10-19T00:09:04.115Z,99.99
2022-10-19T00:09:39.214Z,99.99
2022-10-19T00:10:14.408Z,99.99
2022-10-19T00:10:49.375Z,99.99
2022-10-19T00:11:24.660Z,99.99
2022-10-19T00:12:00.150Z,99.99
2022-10-19T00:12:35.291Z,99.99
2022-10-19T00:13:10.514Z,99.99
2022-10-19T00:13:45.705Z,99.99
2022-10-19T00:14:20.752Z,99.99
2022-10-19T00:14:56.234Z,99.99
2022-10-19T00:15:31.404Z,99.99
2022-10-19T00:16:07.954Z,99.99
2022-10-19T00:16:41.771Z,99.99
2022-10-19T00:17:17.093Z,99.99
2022-10-19T00:17:52.274Z,99.99
2022-10-19T00:18:27.448Z,99.99
2022-10-19T00:19:02.740Z,99.99
2022-10-19T00:19:37.989Z,99.99
2022-10-19T00:20:13.390Z,99.99
2022-10-19T00:20:48.557Z,99.99
2022-10-19T00:21:23.743Z,99.99
2022-10-19T00:21:59.127Z,99.99
2022-10-19T00:22:34.756Z,99.99
2022-10-19T00:23:09.693Z,99.99
2022-10-19T00:23:44.863Z,99.99
2022-10-19T00:24:20.154Z,99.99
2022-10-19T00:24:55.321Z,99.99
2022-10-19T00:25:30.407Z,99.99
2022-10-19T00:26:05.712Z,99.99
2022-10-19T00:26:40.895Z,99.99
2022-10-19T00:27:16.172Z,99.99
2022-10-19T00:27:51.175Z,99.99
2022-10-19T00:28:26.548Z,99.99
2022-10-19T00:29:01.800Z,99.99
2022-10-19T00:29:36.947Z,99.99
2022-10-19T00:30:14.176Z,99.99
2022-10-19T22:00:56.605Z,89.64
2022-10-19T22:01:33.228Z,90.42
2022-10-19T22:02:06.937Z,90.94
2022-10-19T22:02:42.038Z,90.63
2022-10-19T22:03:17.426Z,90.98
2022-10-19T22:03:52.593Z,91.19
2022-10-19T22:04:28.150Z,90.88
2022-10-19T22:05:03.326Z,90.88
2022-10-19T22:05:38.596Z,91.08
2022-10-19T22:06:13.763Z,91.19
2022-10-19T22:06:48.870Z,90.88
2022-10-19T22:07:24.131Z,91.08
2022-10-19T22:07:59.853Z,90.88
2022-10-19T22:08:35.168Z,91.19
2022-10-19T22:09:10.405Z,90.88
2022-10-19T22:09:45.308Z,90.98
2022-10-19T22:10:20.371Z,90.98
2022-10-19T22:10:55.570Z,90.98
2022-10-19T22:11:30.937Z,90.88
2022-10-19T22:12:06.428Z,90.88
2022-10-19T22:12:50.061Z,91.49
2022-10-19T22:13:25.648Z,91.39
2022-10-19T22:14:00.712Z,91.19
2022-10-19T22:14:35.590Z,91.08
2022-10-19T22:15:11.079Z,91.08
2022-10-19T22:15:46.342Z,91.08
2022-10-19T22:16:21.708Z,91.08
2022-10-19T22:16:56.779Z,91.29
2022-10-19T22:17:31.981Z,91.19
2022-10-19T22:18:07.164Z,91.08
2022-10-19T22:18:42.343Z,90.88
2022-10-19T22:19:17.420Z,90.98
2022-10-19T22:19:52.598Z,91.08
2022-10-19T22:20:27.587Z,91.19
2022-10-19T22:21:02.872Z,91.13
